Latest Coastal Weather Observations for Red Rocks Point

IDW60701

Issued at 3:05 pm WST Wednesday 3 September 2014 (issued every 10 minutes, with the page automatically refreshed every 10 minutes)

About coastal observations | Map of coastal stations | Coastal observations for WA | Marine services | Other Formats
Station Details ID: 011053 Name: RED ROCKS POINT Lat: -32.20 Lon: 127.53 Height: 3.1 m
Data from the previous 72 hours. | See also: Recent months for locations in Western Australia
Date/Time
WST
Temp

°C
Wind Pressure Rain
since 9am
mm
Weather Cloud Vis
km
Sea
Height
m
Swell
Dir
 
Speed
knots
Gust
knots
hPa Trend Height
m
Period
s
Dir
03/03:00pm 18.2 SW 13 17 1017.4 - 0.0 - - - - - - -
03/02:30pm 18.6 SW 14 20 1016.9 - 0.0 - - - - - - -
03/02:00pm 19.5 SW 12 17 1016.4 - 0.0 - - - - - - -
03/01:30pm 20.0 SW 10 16 1016.2 - 0.0 - - - - - - -
03/01:00pm 19.5 S 7 11 1015.9 - 0.0 - - - - - - -
03/12:30pm 18.0 SE 4 5 1016.0 - 0.0 - - - - - - -
03/12:00pm 18.4 ESE 4 5 1016.1 - 0.0 - - - - - - -
03/11:30am 17.8 E 6 7 1016.1 - 0.0 - - - - - - -
03/11:00am 17.6 E 7 8 1016.4 - 0.0 - - - - - - -
03/10:30am 17.6 E 8 9 1016.6 - 0.0 - - - - - - -
03/10:00am 16.9 E 7 8 1017.1 - 0.0 - - - - - - -
03/09:30am 17.6 E 8 9 1017.2 - 0.0 - - - - - - -
03/09:00am 16.4 E 7 7 1017.6 - 0.0 - - - - - - -
03/08:30am 15.6 ENE 6 7 1018.0 - 0.0 - - - - - - -
03/08:00am 15.2 E 5 6 1018.3 - 0.0 - - - - - - -
03/07:30am 14.7 E 6 7 1018.3 - 0.0 - - - - - - -
03/07:00am 14.0 E 6 7 1018.2 - 0.0 - - - - - - -
03/06:30am 13.6 E 7 8 1018.1 - 0.0 - - - - - - -
03/06:00am 13.1 E 6 7 1017.9 - 0.0 - - - - - - -
03/05:30am 11.6 ENE 4 6 1018.1 - 0.0 - - - - - - -
03/05:00am 10.7 NE 2 5 1017.8 - 0.0 - - - - - - -
03/04:30am 10.8 NE 2 5 1017.6 - 0.0 - - - - - - -
03/04:00am 10.9 NNE 6 8 1017.2 - 0.0 - - - - - - -
03/03:30am 11.1 NE 8 11 1017.0 - 0.0 - - - - - - -
03/03:00am 11.1 NE 8 10 1017.7 - 0.0 - - - - - - -
03/02:30am 11.4 NE 10 12 1017.9 - 0.0 - - - - - - -
03/02:00am 11.6 NE 9 11 1018.3 - 0.0 - - - - - - -
03/01:30am 10.7 NE 7 9 1019.0 - 0.0 - - - - - - -
03/01:00am 10.6 NE 4 5 1019.9 - 0.0 - - - - - - -
03/12:30am 10.8 NE 5 7 1019.7 - 0.0 - - - - - - -
03/12:00am 11.2 NE 6 9 1020.0 - 0.0 - - - - - - -
 
Date/Time
WST
Temp

°C
Wind Pressure Rain
since 9am
mm
Weather Cloud Vis
km
Sea
Height
m
Swell
Dir
 
Speed
knots
Gust
knots
hPa Trend Height
m
Period
s
Dir
02/11:30pm 11.5 NE 9 11 1020.4 - 0.0 - - - - - - -
02/11:00pm 11.7 NE 8 10 1021.1 - 0.0 - - - - - - -
02/10:30pm 11.5 NE 6 7 1021.9 - 0.0 - - - - - - -
02/10:00pm 12.2 NE 6 7 1022.2 - 0.0 - - - - - - -
02/09:30pm 12.6 NE 7 10 1022.2 - 0.0 - - - - - - -
02/09:00pm 13.1 NE 9 11 1022.0 - 0.0 - - - - - - -
02/08:30pm 13.2 NE 7 9 1022.5 - 0.0 - - - - - - -
02/08:00pm 13.5 NE 7 9 1022.7 - 0.0 - - - - - - -
02/07:30pm 13.5 NE 7 9 1022.8 - 0.0 - - - - - - -
02/07:00pm 13.8 NE 9 12 1022.7 - 0.0 - - - - - - -
02/06:30pm 13.9 NE 14 19 1022.1 - 0.0 - - - - - - -
02/06:00pm 14.4 ENE 15 19 1022.4 - 0.0 - - - - - - -
02/05:30pm 14.3 ENE 18 23 1022.8 - 0.0 - - - - - - -
02/05:00pm 14.7 ENE 20 22 1023.5 - 0.0 - - - - - - -
02/04:30pm 14.9 ENE 20 23 1023.5 - 0.0 - - - - - - -
02/04:00pm 15.0 E 19 22 1023.1 - 0.0 - - - - - - -
02/03:30pm 15.0 E 18 21 1023.5 - 0.0 - - - - - - -
02/03:00pm 15.0 E 18 21 1023.1 - 0.0 - - - - - - -
02/02:30pm 15.0 E 17 19 1023.4 - 0.0 - - - - - - -
02/02:00pm 15.1 E 18 22 1023.3 - 0.0 - - - - - - -
02/01:30pm 15.1 E 19 21 1023.5 - 0.0 - - - - - - -
02/01:00pm 15.8 E 16 19 1024.2 - 0.0 - - - - - - -
02/12:30pm 15.9 E 16 19 1024.6 - 0.0 - - - - - - -
02/12:00pm 17.0 E 14 17 1025.0 - 0.0 - - - - - - -
02/11:30am 17.4 E 10 13 1025.5 - 0.0 - - - - - - -
02/11:00am 18.1 ENE 11 14 1026.2 - 0.0 - - - - - - -
02/10:30am 17.2 NNE 11 18 1026.8 - 0.0 - - - - - - -
02/10:00am 16.9 NE 13 19 1026.9 - 0.0 - - - - - - -
02/09:30am 15.7 NNE 13 19 1027.4 - 0.0 - - - - - - -
02/09:00am 14.6 NE 14 22 1028.0 - 0.0 - - - - - - -
02/08:30am 13.6 NNE 11 16 1027.9 - 0.0 - - - - - - -
02/08:00am 11.5 N 9 14 1028.1 - 0.0 - - - - - - -
02/07:30am 10.1 N 9 11 1028.0 - 0.0 - - - - - - -
02/07:00am 9.5 N 8 11 1027.9 - 0.0 - - - - - - -
02/06:30am 8.1 NNE 9 12 1028.1 - 0.0 - - - - - - -
02/06:00am 6.8 NNE 9 11 1027.8 - 0.0 - - - - - - -
02/05:30am 6.7 NNE 8 11 1027.9 - 0.0 - - - - - - -
02/05:00am 6.0 NNE 6 8 1027.8 - 0.0 - - - - - - -
02/04:30am 6.2 NNE 7 8 1027.7 - 0.0 - - - - - - -
02/04:00am 6.5 NNE 7 8 1027.7 - 0.0 - - - - - - -
02/03:30am 6.8 NNE 6 7 1027.5 - 0.0 - - - - - - -
02/03:00am 6.9 N 7 9 1027.8 - 0.0 - - - - - - -
02/02:30am 9.0 ENE 7 10 1027.7 - 0.0 - - - - - - -
02/02:00am 12.7 E 10 13 1027.4 - 0.0 - - - - - - -
02/01:30am 12.4 E 12 14 1027.9 - 0.0 - - - - - - -
02/01:00am 12.9 E 10 13 1027.7 - 0.0 - - - - - - -
02/12:30am 12.6 E 12 14 1027.6 - 0.0 - - - - - - -
02/12:00am 9.9 NNE 6 8 1027.9 - 0.0 - - - - - - -
 
Date/Time
WST
Temp

°C
Wind Pressure Rain
since 9am
mm
Weather Cloud Vis
km
Sea
Height
m
Swell
Dir
 
Speed
knots
Gust
knots
hPa Trend Height
m
Period
s
Dir
01/11:30pm 12.4 SE 10 12 1028.1 - 0.0 - - - - - - -
01/11:00pm 9.1 NNE 4 5 1028.4 - 0.0 - - - - - - -
01/10:30pm 11.4 E 5 8 1028.8 - 0.0 - - - - - - -
01/10:00pm 12.5 E 8 11 1028.6 - 0.0 - - - - - - -
01/09:30pm 12.9 SE 8 11 1028.3 - 0.0 - - - - - - -
01/09:00pm 13.0 SE 9 13 1028.0 - 0.0 - - - - - - -
01/08:30pm 13.1 SSE 7 11 1028.1 - 0.0 - - - - - - -
01/08:00pm 12.7 SE 7 12 1027.9 - 0.0 - - - - - - -
01/07:30pm 13.2 SE 12 14 1027.6 - 0.0 - - - - - - -
01/07:00pm 13.0 SSE 8 11 1027.6 - 0.0 - - - - - - -
01/06:30pm 12.4 S 8 11 1027.1 - 0.0 - - - - - - -
01/06:00pm 12.8 SSE 8 11 1027.0 - 0.0 - - - - - - -
01/05:30pm 12.1 S 7 11 1026.6 - 0.0 - - - - - - -
01/05:00pm 12.8 S 10 13 1026.3 - 0.0 - - - - - - -
01/04:30pm 13.1 S 11 14 1026.1 - 0.0 - - - - - - -
01/04:00pm 13.8 S 12 16 1025.7 - 0.0 - - - - - - -
01/03:30pm 14.3 S 11 15 1025.4 - 0.0 - - - - - - -
01/03:00pm 14.7 S 12 15 1025.3 - 0.0 - - - - - - -
01/02:30pm 15.2 S 13 17 1025.0 - 0.0 - - - - - - -
01/02:00pm 14.7 S 13 16 1025.0 - 0.0 - - - - - - -
01/01:30pm 15.6 S 15 18 1024.6 - 0.0 - - - - - - -
01/01:00pm 16.3 S 11 14 1024.7 - 0.0 - - - - - - -
01/12:30pm 16.0 S 13 16 1024.8 - 0.0 - - - - - - -
01/12:00pm 16.4 SSW 11 15 1024.8 - 0.0 - - - - - - -
01/11:30am 15.4 S 12 16 1024.9 - 0.0 - - - - - - -
01/11:00am 15.8 SSW 14 18 1024.9 - 0.0 - - - - - - -
01/10:30am 16.5 SSW 13 18 1024.9 - 0.0 - - - - - - -
01/10:00am 16.3 SSW 12 17 1024.8 - 0.0 - - - - - - -
01/09:30am 15.6 SSW 14 19 1024.5 - 0.0 - - - - - - -
01/09:00am 15.2 SSW 15 21 1024.0 - 5.0 - - - - - - -
01/08:30am 15.0 SSW 15 22 1023.5 - 5.0 - - - - - - -
01/08:00am 14.4 SSW 16 21 1023.2 - 5.0 - - - - - - -
01/07:30am 14.4 SW 13 18 1022.9 - 5.0 - - - - - - -
01/07:00am 14.0 SSW 13 18 1022.2 - 5.0 - - - - - - -
01/06:30am 13.6 SSW 13 19 1021.9 - 5.0 - - - - - - -
01/06:00am 13.4 SSW 15 20 1021.4 - 5.0 - - - - - - -
01/05:30am 13.5 SSW 14 19 1020.8 - 5.0 - - - - - - -
01/05:00am 13.4 SSW 12 18 1020.4 - 5.0 - - - - - - -
01/04:30am 13.3 SSW 11 15 1020.0 - 5.0 - - - - - - -
01/04:00am 13.4 SSW 12 18 1019.7 - 5.0 - - - - - - -
01/03:30am 13.6 SW 10 15 1019.4 - 5.0 - - - - - - -
01/03:00am 13.7 SSW 14 21 1019.0 - 5.0 - - - - - - -
01/02:30am 14.0 SW 11 15 1018.7 - 5.0 - - - - - - -
01/02:00am 14.1 SW 12 16 1018.8 - 5.0 - - - - - - -
01/01:30am 14.1 SSW 12 17 1018.6 - 5.0 - - - - - - -
01/01:00am 13.9 SSW 13 19 1018.5 - 5.0 - - - - - - -
01/12:30am 14.3 SW 12 17 1018.3 - 5.0 - - - - - - -
01/12:00am 14.0 SW 10 16 1018.2 - 5.0 - - - - - - -
 
Date/Time
WST
Temp

°C
Wind Pressure Rain
since 9am
mm
Weather Cloud Vis
km
Sea
Height
m
Swell
Dir
 
Speed
knots
Gust
knots
hPa Trend Height
m
Period
s
Dir
31/11:30pm 13.9 SW 12 17 1018.0 - 5.0 - - - - - - -
31/11:00pm 14.0 SW 12 16 1018.3 - 5.0 - - - - - - -
31/10:30pm 13.9 SSW 11 15 1018.4 - 5.0 - - - - - - -
31/10:00pm 13.9 SSW 10 15 1018.4 - 5.0 - - - - - - -
31/09:30pm 14.1 SSW 11 14 1018.3 - 5.0 - - - - - - -
31/09:00pm 14.0 SSW 10 15 1018.4 - 5.0 - - - - - - -
31/08:30pm 14.1 SSW 12 16 1018.3 - 5.0 - - - - - - -
31/08:00pm 14.1 SSW 10 13 1017.9 - 5.0 - - - - - - -
31/07:30pm 14.2 SSW 11 15 1017.4 - 5.0 - - - - - - -
31/07:00pm 14.2 SSW 12 17 1016.9 - 5.0 - - - - - - -
31/06:30pm 14.4 SSW 13 19 1016.7 - 5.0 - - - - - - -
31/06:00pm 14.4 SSW 13 17 1016.3 - 5.0 - - - - - - -
31/05:30pm 14.5 SSW 13 19 1015.8 - 5.0 - - - - - - -
31/05:00pm 15.0 WSW 11 16 1015.2 - 5.0 - - - - - - -
31/04:30pm 15.0 WSW 12 20 1014.8 - 5.0 - - - - - - -
31/04:00pm 15.7 WSW 10 13 1014.3 - 5.0 - - - - - - -
31/03:30pm 16.0 WSW 9 15 1013.8 - 5.0 - - - - - - -

Other Formats:

Comma delimited format used in spreadsheet applications
http://www.bom.gov.au/fwo/IDW60701/IDW60701.94644.axf

JavaScript Object Notation format (JSON) in row-major order
http://www.bom.gov.au/fwo/IDW60701/IDW60701.94644.json